Weather History for Duluth Sky Harbor, MN

Change the Weather History Date:

Sunday, January 6, 2013

  Actual Average Record
Temperature  
Mean Temperature 19 °F -  
Max Temperature 23 °F 18 °F 44 °F (2012)
Min Temperature 15 °F 2 °F -28 °F (1968)
Degree Days  
Heating Degree Days 46    
Moisture  
Dew Point 12 °F    
Average Humidity 72    
Maximum Humidity 86    
Minimum Humidity 59    
Precipitation  
Precipitation 0.00 in - - ()
Sea Level Pressure  
Sea Level Pressure 30.10 in    
Wind  
Wind Speed 9 mph (West)    
Max Wind Speed 17 mph    
Max Gust Speed -    
Visibility 10 miles    
Events      
Averages and records for this station are not official NWS values.
T = Trace of Precipitation, MM = Missing Value Source: NWS Daily Summary

Daily Weather History Graph

Daily Weather History Graph

Search for Another Location

Airport:

Trip Planner

Search our weather history database for the weather conditions in past years. The results will help you decide how hot, cold, wet, or windy it might be!

Date:

Astronomy

Jan. 06, 2013 Rise Set
Actual Time 7:52 AM CST 4:36 PM CST
Civil Twilight 7:17 AM CST 5:11 PM CST
Nautical Twilight 6:39 AM CST 5:49 PM CST
Astronomical Twilight 6:02 AM CST 6:25 PM CST
Moon 1:58 AM CST (1/6) 12:10 PM CST (1/6)
Length of Visible Light 9h 53m
Length of Day
8h 44m
Waning Crescent, 33% of the Moon is Illuminated
Jan 6
Waning Crescent
Jan 11
New
Jan 18
First Quarter
Jan 26
Full
Feb 3
Last Quarter

Hourly Weather History & Observations

Time (CST) Temp. Windchill Dew Point Humidity Pressure Visibility Wind Dir Wind Speed Gust Speed Precip Events Conditions
12:14 AM 23.0 °F 9.2 °F 19.4 °F 86% 29.98 in 10.0 mi NW 17.3 mph - N/A   Overcast
12:33 AM 23.0 °F 12.4 °F 19.4 °F 86% 29.99 in 10.0 mi WNW 10.4 mph - N/A   Overcast
12:54 AM 23.0 °F 13.9 °F 19.4 °F 86% 29.99 in 10.0 mi WNW 8.1 mph - N/A   Overcast
1:13 AM 23.0 °F 14.7 °F 19.4 °F 86% 30.00 in 10.0 mi WNW 6.9 mph - N/A   Overcast
1:33 AM 23.0 °F 13.9 °F 17.6 °F 80% 30.00 in 10.0 mi WNW 8.1 mph - N/A   Overcast
1:54 AM 23.0 °F 13.9 °F 17.6 °F 80% 30.01 in 10.0 mi NW 8.1 mph - N/A   Overcast
2:13 AM 23.0 °F 12.4 °F 17.6 °F 80% 30.01 in 10.0 mi NW 10.4 mph - N/A   Overcast
2:34 AM 23.0 °F 13.1 °F 17.6 °F 80% 30.02 in 10.0 mi WNW 9.2 mph - N/A   Overcast
2:54 AM 23.0 °F 11.7 °F 17.6 °F 80% 30.03 in 10.0 mi WNW 11.5 mph - N/A   Overcast
3:13 AM 23.0 °F 13.1 °F 17.6 °F 80% 30.03 in 10.0 mi WNW 9.2 mph - N/A   Overcast
3:34 AM 21.2 °F 8.9 °F 15.8 °F 80% 30.03 in 10.0 mi WNW 12.7 mph - N/A   Overcast
4:13 AM 21.2 °F 10.9 °F 15.8 °F 80% 30.04 in 10.0 mi West 9.2 mph - N/A   Overcast
4:33 AM 19.4 °F 7.2 °F 14.0 °F 80% 30.05 in 10.0 mi WNW 11.5 mph - N/A   Scattered Clouds
4:54 AM 19.4 °F 5.5 °F 14.0 °F 80% 30.06 in 10.0 mi WNW 15.0 mph - N/A   Clear
5:33 AM 21.2 °F 10.9 °F 14.0 °F 74% 30.07 in 10.0 mi NW 9.2 mph - N/A   Overcast
5:54 AM 19.4 °F 8.6 °F 14.0 °F 80% 30.08 in 10.0 mi WNW 9.2 mph - N/A   Mostly Cloudy
6:33 AM 19.4 °F 6.0 °F 12.2 °F 74% 30.10 in 10.0 mi WNW 13.8 mph - N/A   Mostly Cloudy
6:54 AM 19.4 °F 6.6 °F 12.2 °F 74% 30.12 in 10.0 mi WNW 12.7 mph - N/A   Mostly Cloudy
7:13 AM 19.4 °F 6.6 °F 12.2 °F 74% 30.12 in 10.0 mi WNW 12.7 mph - N/A   Mostly Cloudy
7:33 AM 19.4 °F 6.0 °F 12.2 °F 74% 30.13 in 10.0 mi WNW 13.8 mph - N/A   Mostly Cloudy
7:53 AM 17.6 °F 5.7 °F 12.2 °F 79% 30.13 in 10.0 mi West 10.4 mph - N/A   Mostly Cloudy
8:14 AM 17.6 °F 5.7 °F 12.2 °F 79% 30.14 in 10.0 mi WNW 10.4 mph - N/A   Scattered Clouds
8:33 AM 17.6 °F 5.7 °F 10.4 °F 73% 30.15 in 10.0 mi WNW 10.4 mph - N/A   Scattered Clouds
8:53 AM 17.6 °F 5.0 °F 10.4 °F 73% 30.16 in 10.0 mi NW 11.5 mph - N/A   Scattered Clouds
9:13 AM 17.6 °F 5.7 °F 10.4 °F 73% 30.16 in 10.0 mi NW 10.4 mph - N/A   Scattered Clouds
9:33 AM 17.6 °F 7.3 °F 10.4 °F 73% 30.16 in 10.0 mi WNW 8.1 mph - N/A   Clear
9:54 AM 17.6 °F 6.4 °F 10.4 °F 73% 30.17 in 10.0 mi WNW 9.2 mph - N/A   Clear
10:13 AM 17.6 °F 9.3 °F 10.4 °F 73% 30.17 in 10.0 mi NW 5.8 mph - N/A   Clear
10:34 AM 17.6 °F 9.3 °F 12.2 °F 79% 30.19 in 10.0 mi West 5.8 mph - N/A   Clear
10:54 AM 19.4 °F 10.4 °F 12.2 °F 74% 30.18 in 10.0 mi West 6.9 mph - N/A   Clear
11:13 AM 19.4 °F 12.8 °F 10.4 °F 68% 30.18 in 10.0 mi WSW 4.6 mph - N/A   Clear
11:34 AM 19.4 °F 14.3 °F 10.4 °F 68% 30.17 in 10.0 mi West 3.5 mph - N/A   Clear
11:53 AM 19.4 °F 11.5 °F 12.2 °F 74% 30.17 in 10.0 mi West 5.8 mph - N/A   Clear
12:13 PM 19.4 °F 14.3 °F 10.4 °F 68% 30.16 in 10.0 mi West 3.5 mph - N/A   Clear
12:34 PM 19.4 °F 11.5 °F 10.4 °F 68% 30.16 in 10.0 mi West 5.8 mph - N/A   Clear
12:53 PM 21.2 °F 13.6 °F 10.4 °F 63% 30.16 in 10.0 mi SW 5.8 mph - N/A   Clear
1:14 PM 21.2 °F 16.4 °F 10.4 °F 63% 30.15 in 10.0 mi WSW 3.5 mph - N/A   Clear
1:33 PM 21.2 °F 13.6 °F 10.4 °F 63% 30.15 in 10.0 mi SSW 5.8 mph - N/A   Clear
1:54 PM 21.2 °F 14.9 °F 10.4 °F 63% 30.16 in 10.0 mi WSW 4.6 mph - N/A   Clear
2:13 PM 23.0 °F 18.4 °F 10.4 °F 59% 30.16 in 10.0 mi SSW 3.5 mph - N/A   Clear
2:34 PM 23.0 °F 15.8 °F 10.4 °F 59% 30.16 in 10.0 mi SW 5.8 mph - N/A   Clear
2:53 PM 23.0 °F 18.4 °F 10.4 °F 59% 30.16 in 10.0 mi SSW 3.5 mph - N/A   Clear
3:14 PM 23.0 °F 17.0 °F 10.4 °F 59% 30.16 in 10.0 mi SW 4.6 mph - N/A   Clear
3:34 PM 23.0 °F 17.0 °F 10.4 °F 59% 30.16 in 10.0 mi SSW 4.6 mph - N/A   Clear
3:54 PM 21.2 °F - 10.4 °F 63% 30.15 in 10.0 mi Calm Calm - N/A   Clear
4:14 PM 23.0 °F - 10.4 °F 59% 30.16 in 10.0 mi Calm Calm - N/A   Clear
4:53 PM 21.2 °F - 10.4 °F 63% 30.15 in 10.0 mi Calm Calm - N/A   Clear
5:13 PM 21.2 °F - 10.4 °F 63% 30.14 in 10.0 mi Calm Calm - N/A   Clear
5:33 PM 21.2 °F - 10.4 °F 63% 30.13 in 10.0 mi Calm Calm - N/A   Clear
5:53 PM 21.2 °F - 10.4 °F 63% 30.13 in 10.0 mi Calm Calm - N/A   Clear
6:14 PM 19.4 °F 12.8 °F 12.2 °F 74% 30.13 in 10.0 mi SSW 4.6 mph - N/A   Clear
6:33 PM 19.4 °F 12.8 °F 10.4 °F 68% 30.13 in 10.0 mi SSW 4.6 mph - N/A   Clear
6:53 PM 17.6 °F 7.3 °F 10.4 °F 73% 30.12 in 10.0 mi South 8.1 mph - N/A   Clear
7:14 PM 19.4 °F 10.4 °F 10.4 °F 68% 30.12 in 10.0 mi SSW 6.9 mph - N/A   Clear
7:33 PM 19.4 °F 10.4 °F 10.4 °F 68% 30.11 in 10.0 mi SSW 6.9 mph - N/A   Clear
7:53 PM 19.4 °F 9.5 °F 10.4 °F 68% 30.11 in 10.0 mi SSW 8.1 mph - N/A   Clear
8:14 PM 17.6 °F 9.3 °F 10.4 °F 73% 30.10 in 10.0 mi SW 5.8 mph - N/A   Clear
8:33 PM 17.6 °F 8.2 °F 8.6 °F 68% 30.09 in 10.0 mi SW 6.9 mph - N/A   Clear
8:53 PM 15.8 °F 7.2 °F 8.6 °F 73% 30.09 in 10.0 mi SW 5.8 mph - N/A   Clear
9:14 PM 15.8 °F 10.2 °F 8.6 °F 73% 30.09 in 10.0 mi SW 3.5 mph - N/A   Clear
9:33 PM 15.8 °F 8.6 °F 8.6 °F 73% 30.07 in 10.0 mi SSW 4.6 mph - N/A   Clear
9:54 PM 15.8 °F - 8.6 °F 73% 30.06 in 10.0 mi Calm Calm - N/A   Clear
10:33 PM 15.8 °F 10.2 °F 10.4 °F 79% 30.04 in 10.0 mi SW 3.5 mph - N/A   Clear
10:54 PM 15.8 °F 7.2 °F 8.6 °F 73% 30.04 in 10.0 mi SSW 5.8 mph - N/A   Clear
11:33 PM 15.8 °F 10.2 °F 8.6 °F 73% 30.00 in 10.0 mi South 3.5 mph - N/A   Clear
11:54 PM 15.8 °F - 8.6 °F 73% 29.99 in 10.0 mi Calm Calm - N/A   Clear